createdAt,value
2022-08-01T00:00:11.575Z,1007.68
2022-08-01T00:01:11.608Z,1007.67
2022-08-01T00:02:11.613Z,1007.67
2022-08-01T00:03:11.610Z,1007.65
2022-08-01T00:04:11.631Z,1007.60
2022-08-01T00:05:11.677Z,1007.60
2022-08-01T00:06:11.637Z,1007.60
2022-08-01T00:07:11.625Z,1007.60
2022-08-01T00:08:11.646Z,1007.64
2022-08-01T00:09:11.646Z,1007.63
2022-08-01T00:10:11.647Z,1007.67
2022-08-01T00:11:11.647Z,1007.70
2022-08-01T00:12:11.826Z,1007.66
2022-08-01T00:13:11.686Z,1007.71
2022-08-01T00:14:11.660Z,1007.70
2022-08-01T00:15:11.673Z,1007.74
2022-08-01T00:16:11.681Z,1007.69
2022-08-01T00:17:11.682Z,1007.69
2022-08-01T00:18:11.720Z,1007.69
2022-08-01T00:19:11.694Z,1007.66
2022-08-01T00:20:11.696Z,1007.71
2022-08-01T00:21:11.718Z,1007.68
2022-08-01T00:22:11.724Z,1007.70
2022-08-01T00:23:11.746Z,1007.71
2022-08-01T00:24:14.327Z,1007.70
2022-08-01T00:25:11.735Z,1007.67
2022-08-01T00:26:11.747Z,1007.71
2022-08-01T00:27:11.761Z,1007.72
2022-08-01T00:28:11.769Z,1007.75
2022-08-01T00:30:10.685Z,1007.77
2022-08-01T00:30:14.600Z,1007.79
2022-08-01T00:31:11.768Z,1007.82
2022-08-01T00:32:11.782Z,1007.80
2022-08-01T00:33:11.799Z,1007.82
2022-08-01T00:34:11.792Z,1007.83
2022-08-01T00:35:11.829Z,1007.80
2022-08-01T00:36:11.792Z,1007.80
2022-08-01T00:37:16.052Z,1007.74
2022-08-01T00:38:11.816Z,1007.76
2022-08-01T00:39:11.812Z,1007.72
2022-08-01T00:40:11.822Z,1007.69
2022-08-01T00:41:11.841Z,1007.71
2022-08-01T00:42:11.845Z,1007.72
2022-08-01T00:43:11.856Z,1007.74
2022-08-01T00:44:11.846Z,1007.76
2022-08-01T00:45:11.855Z,1007.75
2022-08-01T00:46:11.882Z,1007.76
2022-08-01T00:47:11.868Z,1007.70
2022-08-01T00:48:11.874Z,1007.76
2022-08-01T00:49:11.898Z,1007.75
2022-08-01T00:50:11.910Z,1007.74
2022-08-01T00:51:11.893Z,1007.73
2022-08-01T00:52:11.943Z,1007.78
2022-08-01T00:53:18.973Z,1007.73
2022-08-01T00:54:11.917Z,1007.74
2022-08-01T00:55:13.207Z,1007.74
2022-08-01T00:56:11.928Z,1007.69
2022-08-01T00:57:11.942Z,1007.67
2022-08-01T00:58:12.414Z,1007.73
2022-08-01T00:59:11.939Z,1007.69
2022-08-01T01:00:11.942Z,1007.70
2022-08-01T01:01:11.980Z,1007.73
2022-08-01T01:02:15.795Z,1007.73
2022-08-01T01:03:11.968Z,1007.70
2022-08-01T01:04:11.963Z,1007.66
2022-08-01T01:05:11.980Z,1007.68
2022-08-01T01:06:11.983Z,1007.66
2022-08-01T01:07:11.986Z,1007.72
2022-08-01T01:08:11.987Z,1007.69
2022-08-01T01:09:11.988Z,1007.65
2022-08-01T01:10:12.195Z,1007.67
2022-08-01T01:11:12.037Z,1007.70
2022-08-01T01:12:12.020Z,1007.68
2022-08-01T01:13:12.021Z,1007.66
2022-08-01T01:14:12.027Z,1007.70
2022-08-01T01:15:12.045Z,1007.66
2022-08-01T01:16:12.047Z,1007.66
2022-08-01T01:17:12.073Z,1007.63
2022-08-01T01:18:12.063Z,1007.63
2022-08-01T01:19:12.059Z,1007.66
2022-08-01T01:20:12.066Z,1007.61
2022-08-01T01:21:12.076Z,1007.62
2022-08-01T01:22:12.079Z,1007.59
2022-08-01T01:23:12.082Z,1007.60
2022-08-01T01:24:12.101Z,1007.61
2022-08-01T01:25:12.093Z,1007.62
2022-08-01T01:26:12.127Z,1007.60
2022-08-01T01:27:12.106Z,1007.63
2022-08-01T01:28:12.114Z,1007.62
2022-08-01T01:29:12.137Z,1007.64
2022-08-01T01:30:12.119Z,1007.61
2022-08-01T01:31:12.131Z,1007.62
2022-08-01T01:32:12.148Z,1007.58
2022-08-01T01:33:12.142Z,1007.57
2022-08-01T01:34:12.169Z,1007.61
2022-08-01T01:35:12.152Z,1007.59
2022-08-01T01:36:12.152Z,1007.57
2022-08-01T01:37:12.162Z,1007.56
2022-08-01T01:38:12.178Z,1007.56
2022-08-01T01:39:12.216Z,1007.56
2022-08-01T01:40:12.172Z,1007.51
2022-08-01T01:41:12.193Z,1007.50
2022-08-01T01:42:12.198Z,1007.51
2022-08-01T01:43:12.196Z,1007.55
2022-08-01T01:44:12.209Z,1007.51
2022-08-01T01:45:12.215Z,1007.52
2022-08-01T01:46:12.218Z,1007.51
2022-08-01T01:47:12.223Z,1007.46
2022-08-01T01:48:12.230Z,1007.43
2022-08-01T01:49:12.271Z,1007.45
2022-08-01T01:50:12.273Z,1007.46
2022-08-01T01:51:12.246Z,1007.45
2022-08-01T01:52:12.257Z,1007.45
2022-08-01T01:53:14.911Z,1007.42
2022-08-01T01:54:12.269Z,1007.43
2022-08-01T01:55:12.270Z,1007.44
2022-08-01T01:56:12.279Z,1007.43
2022-08-01T01:57:12.278Z,1007.44
2022-08-01T01:58:12.290Z,1007.41
2022-08-01T01:59:12.281Z,1007.41
2022-08-01T02:00:12.289Z,1007.41
2022-08-01T02:01:14.658Z,1007.41
2022-08-01T02:02:12.589Z,1007.42
2022-08-01T02:03:12.308Z,1007.43
2022-08-01T02:04:12.322Z,1007.41
2022-08-01T02:05:12.332Z,1007.46
2022-08-01T02:06:12.341Z,1007.47
2022-08-01T02:07:12.345Z,1007.44
2022-08-01T02:08:12.347Z,1007.47
2022-08-01T02:09:12.346Z,1007.46
2022-08-01T02:10:12.349Z,1007.50
2022-08-01T02:11:12.353Z,1007.47
2022-08-01T02:12:12.527Z,1007.47
2022-08-01T02:13:12.357Z,1007.48
2022-08-01T02:14:12.381Z,1007.44
2022-08-01T02:15:12.370Z,1007.46
2022-08-01T02:16:12.389Z,1007.47
2022-08-01T02:17:12.404Z,1007.47
2022-08-01T02:18:12.405Z,1007.49
2022-08-01T02:19:12.417Z,1007.50
2022-08-01T02:20:12.403Z,1007.50
2022-08-01T02:21:12.415Z,1007.44
2022-08-01T02:22:12.413Z,1007.47
2022-08-01T02:23:12.431Z,1007.51
2022-08-01T02:24:12.434Z,1007.49
2022-08-01T02:25:12.428Z,1007.50
2022-08-01T02:26:12.436Z,1007.52
2022-08-01T02:27:12.453Z,1007.49
2022-08-01T02:28:12.469Z,1007.48
2022-08-01T02:29:12.447Z,1007.46
2022-08-01T02:30:12.469Z,1007.47
2022-08-01T02:31:12.468Z,1007.47
2022-08-01T02:32:12.475Z,1007.48
2022-08-01T02:33:16.074Z,1007.43
2022-08-01T02:34:12.477Z,1007.49
2022-08-01T02:35:12.491Z,1007.43
2022-08-01T02:36:31.206Z,1007.47
2022-08-01T02:37:12.501Z,1007.43
2022-08-01T02:38:12.504Z,1007.45
2022-08-01T02:39:12.536Z,1007.46
2022-08-01T02:40:14.260Z,1007.42
2022-08-01T02:41:12.519Z,1007.43
2022-08-01T02:42:12.535Z,1007.43
2022-08-01T02:43:12.546Z,1007.49
2022-08-01T02:44:12.543Z,1007.46
2022-08-01T02:45:12.577Z,1007.41
2022-08-01T02:46:12.545Z,1007.46
2022-08-01T02:47:12.555Z,1007.44
2022-08-01T02:48:12.565Z,1007.45
2022-08-01T02:49:12.610Z,1007.44
2022-08-01T02:50:12.578Z,1007.43
2022-08-01T02:51:12.622Z,1007.45
2022-08-01T02:52:12.590Z,1007.41
2022-08-01T02:53:12.584Z,1007.38
2022-08-01T02:54:12.598Z,1007.42
2022-08-01T02:55:12.592Z,1007.43
2022-08-01T02:56:12.663Z,1007.42
2022-08-01T02:57:13.961Z,1007.42
2022-08-01T02:58:12.908Z,1007.42
2022-08-01T02:59:13.022Z,1007.45
2022-08-01T03:00:12.630Z,1007.45
2022-08-01T03:01:12.693Z,1007.47
2022-08-01T03:02:12.651Z,1007.44
2022-08-01T03:03:12.640Z,1007.47
2022-08-01T03:04:12.645Z,1007.48
2022-08-01T03:05:12.646Z,1007.49
2022-08-01T03:06:12.678Z,1007.41
2022-08-01T03:07:12.670Z,1007.45
2022-08-01T03:08:14.827Z,1007.46
2022-08-01T03:09:12.673Z,1007.49
2022-08-01T03:10:12.673Z,1007.46
2022-08-01T03:11:12.690Z,1007.48
2022-08-01T03:12:12.696Z,1007.47
2022-08-01T03:13:12.723Z,1007.46
2022-08-01T03:14:12.695Z,1007.46
2022-08-01T03:15:12.710Z,1007.49
2022-08-01T03:16:12.708Z,1007.49
2022-08-01T03:17:12.705Z,1007.49
2022-08-01T03:18:12.729Z,1007.47
2022-08-01T03:19:12.727Z,1007.46
2022-08-01T03:20:12.739Z,1007.49
2022-08-01T03:21:12.745Z,1007.51
2022-08-01T03:22:12.749Z,1007.47
2022-08-01T03:23:12.760Z,1007.54
2022-08-01T03:24:12.744Z,1007.53
2022-08-01T03:25:12.764Z,1007.50
2022-08-01T03:26:12.757Z,1007.53
2022-08-01T03:27:12.770Z,1007.55
2022-08-01T03:28:12.780Z,1007.50
2022-08-01T03:29:12.786Z,1007.56
2022-08-01T03:30:12.778Z,1007.56
2022-08-01T03:31:12.789Z,1007.56
2022-08-01T03:32:12.794Z,1007.57
2022-08-01T03:33:14.419Z,1007.59
2022-08-01T03:34:12.815Z,1007.54
2022-08-01T03:35:12.814Z,1007.58
2022-08-01T03:36:12.818Z,1007.58
2022-08-01T03:37:12.821Z,1007.57
2022-08-01T03:38:16.251Z,1007.58
2022-08-01T03:39:12.863Z,1007.59
2022-08-01T03:40:12.848Z,1007.60
2022-08-01T03:41:12.842Z,1007.60
2022-08-01T03:42:12.852Z,1007.60
2022-08-01T03:43:12.856Z,1007.59
2022-08-01T03:44:12.867Z,1007.59
2022-08-01T03:45:13.379Z,1007.58
2022-08-01T03:46:12.872Z,1007.58
2022-08-01T03:47:12.862Z,1007.58
2022-08-01T03:48:12.864Z,1007.61
2022-08-01T03:49:12.925Z,1007.60
2022-08-01T03:50:12.889Z,1007.60
2022-08-01T03:51:12.911Z,1007.60
2022-08-01T03:52:12.893Z,1007.59
2022-08-01T03:53:12.892Z,1007.60
2022-08-01T03:54:12.903Z,1007.60
2022-08-01T03:55:12.919Z,1007.57
2022-08-01T03:56:12.933Z,1007.64
2022-08-01T03:57:34.851Z,1007.64
2022-08-01T03:58:12.936Z,1007.61
2022-08-01T03:59:12.929Z,1007.62
2022-08-01T04:00:12.936Z,1007.61
2022-08-01T04:01:16.037Z,1007.60
2022-08-01T04:02:12.961Z,1007.59
2022-08-01T04:03:12.950Z,1007.59
2022-08-01T04:04:12.951Z,1007.57
2022-08-01T04:05:12.975Z,1007.61
2022-08-01T04:06:12.974Z,1007.63
2022-08-01T04:07:12.975Z,1007.62
2022-08-01T04:08:12.976Z,1007.61
2022-08-01T04:09:13.794Z,1007.61
2022-08-01T04:10:12.993Z,1007.63
2022-08-01T04:11:12.983Z,1007.62
2022-08-01T04:12:13.095Z,1007.64
2022-08-01T04:13:13.020Z,1007.66
2022-08-01T04:14:12.999Z,1007.63
2022-08-01T04:15:13.023Z,1007.65
2022-08-01T04:16:13.007Z,1007.65
2022-08-01T04:17:13.014Z,1007.63
2022-08-01T04:18:13.030Z,1007.61
2022-08-01T04:19:13.046Z,1007.66
2022-08-01T04:20:13.069Z,1007.64
2022-08-01T04:21:13.044Z,1007.66
2022-08-01T04:22:13.060Z,1007.67
2022-08-01T04:23:13.049Z,1007.65
2022-08-01T04:24:13.069Z,1007.71
2022-08-01T04:25:13.073Z,1007.71
2022-08-01T04:26:13.060Z,1007.67
2022-08-01T04:27:13.068Z,1007.70
2022-08-01T04:28:13.082Z,1007.69
2022-08-01T04:29:13.124Z,1007.68
2022-08-01T04:30:13.081Z,1007.74
2022-08-01T04:31:13.094Z,1007.71
2022-08-01T04:32:13.106Z,1007.73
2022-08-01T04:33:13.089Z,1007.69
2022-08-01T04:34:13.112Z,1007.73
2022-08-01T04:35:57.717Z,1007.76
2022-08-01T04:36:13.666Z,1007.74
2022-08-01T04:37:13.313Z,1007.73
2022-08-01T04:38:13.116Z,1007.73
2022-08-01T04:39:13.140Z,1007.77
2022-08-01T04:40:13.136Z,1007.75
2022-08-01T04:41:13.143Z,1007.79
2022-08-01T04:42:13.146Z,1007.81
2022-08-01T04:43:14.907Z,1007.76
2022-08-01T04:44:13.162Z,1007.80
2022-08-01T04:45:13.188Z,1007.78
2022-08-01T04:46:13.168Z,1007.85
2022-08-01T04:47:13.184Z,1007.79
2022-08-01T04:48:13.180Z,1007.87
2022-08-01T04:49:13.224Z,1007.85
2022-08-01T04:50:13.174Z,1007.93
2022-08-01T04:51:13.208Z,1007.91
2022-08-01T04:52:18.038Z,1007.90
2022-08-01T04:53:13.190Z,1007.84
2022-08-01T04:54:13.202Z,1007.89
2022-08-01T04:55:13.210Z,1007.88
2022-08-01T04:56:13.205Z,1007.90
2022-08-01T04:57:13.234Z,1007.91
2022-08-01T04:58:17.373Z,1007.88
2022-08-01T04:59:19.629Z,1007.87
2022-08-01T05:00:13.227Z,1007.92
2022-08-01T05:01:13.285Z,1007.91
2022-08-01T05:02:13.242Z,1007.93
2022-08-01T05:03:13.323Z,1007.92
2022-08-01T05:04:13.240Z,1007.93
2022-08-01T05:05:13.588Z,1007.94
2022-08-01T05:06:13.269Z,1007.94
2022-08-01T05:07:13.259Z,1007.93
2022-08-01T05:08:13.271Z,1007.97
2022-08-01T05:09:13.284Z,1007.96
2022-08-01T05:10:13.310Z,1007.93
2022-08-01T05:11:13.281Z,1007.98
2022-08-01T05:12:13.285Z,1007.94
2022-08-01T05:13:13.333Z,1007.99
2022-08-01T05:14:13.300Z,1008.01
2022-08-01T05:15:15.713Z,1007.97
2022-08-01T05:16:13.304Z,1007.94
2022-08-01T05:17:13.320Z,1007.98
2022-08-01T05:18:13.319Z,1007.99
2022-08-01T05:19:13.330Z,1007.95
2022-08-01T05:20:13.333Z,1008.00
2022-08-01T05:21:13.350Z,1007.99
2022-08-01T05:22:13.341Z,1008.02
2022-08-01T05:23:20.555Z,1008.02
2022-08-01T05:24:13.350Z,1007.97
2022-08-01T05:25:13.379Z,1007.99
2022-08-01T05:26:14.619Z,1007.96
2022-08-01T05:27:13.574Z,1007.95
2022-08-01T05:28:13.366Z,1007.98
2022-08-01T05:29:13.374Z,1007.99
2022-08-01T05:30:13.382Z,1007.95
2022-08-01T05:31:13.399Z,1007.95
2022-08-01T05:32:13.380Z,1007.95
2022-08-01T05:33:13.404Z,1007.92
2022-08-01T05:34:15.283Z,1007.93
2022-08-01T05:35:13.407Z,1007.88
2022-08-01T05:36:13.432Z,1007.91
2022-08-01T05:37:13.436Z,1007.96
2022-08-01T05:38:14.945Z,1007.95
2022-08-01T05:39:13.438Z,1007.95
2022-08-01T05:40:13.429Z,1007.95
2022-08-01T05:41:13.434Z,1007.96
2022-08-01T05:42:13.439Z,1007.99
2022-08-01T05:43:13.440Z,1007.99
2022-08-01T05:44:13.452Z,1008.03
2022-08-01T05:45:13.459Z,1008.01
2022-08-01T05:46:13.479Z,1007.97
2022-08-01T05:47:13.480Z,1008.01
2022-08-01T05:48:13.469Z,1007.95
2022-08-01T05:49:13.522Z,1007.97
2022-08-01T05:50:13.486Z,1007.96
2022-08-01T05:51:13.476Z,1008.01
2022-08-01T05:52:13.492Z,1008.00
2022-08-01T05:53:13.506Z,1007.97
2022-08-01T05:54:13.488Z,1008.03
2022-08-01T05:55:13.497Z,1008.03
2022-08-01T05:56:13.501Z,1008.07
2022-08-01T05:57:13.525Z,1008.07
2022-08-01T05:58:13.537Z,1008.11
2022-08-01T05:59:13.521Z,1008.07
2022-08-01T06:00:13.545Z,1008.13
2022-08-01T06:01:13.524Z,1008.09
2022-08-01T06:02:13.583Z,1008.11
2022-08-01T06:03:13.552Z,1008.07
2022-08-01T06:04:13.543Z,1008.12
2022-08-01T06:05:13.828Z,1008.12
2022-08-01T06:06:13.606Z,1008.09
2022-08-01T06:07:13.581Z,1008.09
2022-08-01T06:08:13.560Z,1008.06
2022-08-01T06:09:13.566Z,1008.11
2022-08-01T06:10:13.568Z,1008.09
2022-08-01T06:11:13.587Z,1008.08
2022-08-01T06:12:13.601Z,1008.13
2022-08-01T06:13:13.613Z,1008.09
2022-08-01T06:14:13.598Z,1008.07
2022-08-01T06:15:13.614Z,1008.12
2022-08-01T06:16:13.633Z,1008.11
2022-08-01T06:17:13.624Z,1008.14
2022-08-01T06:18:13.620Z,1008.12
2022-08-01T06:19:13.639Z,1008.11
2022-08-01T06:20:13.647Z,1008.15
2022-08-01T06:21:13.637Z,1008.11
2022-08-01T06:22:13.661Z,1008.10
2022-08-01T06:23:31.738Z,1008.15
2022-08-01T06:24:13.653Z,1008.13
2022-08-01T06:25:13.650Z,1008.16
2022-08-01T06:26:13.658Z,1008.16
2022-08-01T06:27:21.571Z,1008.19
2022-08-01T06:28:13.661Z,1008.19
2022-08-01T06:29:13.677Z,1008.22
2022-08-01T06:30:13.672Z,1008.23
2022-08-01T06:31:13.680Z,1008.21
2022-08-01T06:32:24.231Z,1008.24
2022-08-01T06:33:13.707Z,1008.26
2022-08-01T06:34:13.751Z,1008.25
2022-08-01T06:35:13.712Z,1008.24
2022-08-01T06:36:13.699Z,1008.28
2022-08-01T06:37:13.717Z,1008.27
2022-08-01T06:38:13.751Z,1008.32
2022-08-01T06:39:13.723Z,1008.32
2022-08-01T06:40:17.125Z,1008.34
2022-08-01T06:41:13.731Z,1008.35
2022-08-01T06:42:13.744Z,1008.35
2022-08-01T06:43:13.747Z,1008.33
2022-08-01T06:44:13.755Z,1008.35
2022-08-01T06:45:13.764Z,1008.36
2022-08-01T06:46:13.768Z,1008.34
2022-08-01T06:47:13.769Z,1008.37
2022-08-01T06:48:13.761Z,1008.30
2022-08-01T06:49:13.845Z,1008.31
2022-08-01T06:50:13.800Z,1008.33
2022-08-01T06:51:13.780Z,1008.34
2022-08-01T06:52:13.793Z,1008.35
2022-08-01T06:53:13.814Z,1008.35
2022-08-01T06:54:13.800Z,1008.34
2022-08-01T06:55:13.802Z,1008.31
2022-08-01T06:56:13.800Z,1008.31
2022-08-01T06:57:13.846Z,1008.36
2022-08-01T06:58:13.827Z,1008.32
2022-08-01T06:59:13.830Z,1008.33
2022-08-01T07:00:13.840Z,1008.33
2022-08-01T07:01:13.930Z,1008.35
2022-08-01T07:02:13.838Z,1008.37
2022-08-01T07:03:13.836Z,1008.36
2022-08-01T07:04:13.881Z,1008.35
2022-08-01T07:05:13.861Z,1008.36
2022-08-01T07:06:13.873Z,1008.35
2022-08-01T07:07:13.893Z,1008.35
2022-08-01T07:08:13.869Z,1008.38
2022-08-01T07:09:14.760Z,1008.37
2022-08-01T07:10:13.883Z,1008.39
2022-08-01T07:11:13.904Z,1008.38
2022-08-01T07:12:13.887Z,1008.38
2022-08-01T07:13:13.896Z,1008.39
2022-08-01T07:14:13.896Z,1008.39
2022-08-01T07:15:13.918Z,1008.35
2022-08-01T07:16:13.923Z,1008.36
2022-08-01T07:17:13.914Z,1008.39
2022-08-01T07:18:13.919Z,1008.37
2022-08-01T07:19:13.932Z,1008.40
2022-08-01T07:20:16.569Z,1008.35
2022-08-01T07:21:38.389Z,1008.39
2022-08-01T07:22:13.952Z,1008.38
2022-08-01T07:23:13.953Z,1008.40
2022-08-01T07:24:14.536Z,1008.38
2022-08-01T07:25:13.960Z,1008.40
2022-08-01T07:26:13.973Z,1008.39
2022-08-01T07:27:24.151Z,1008.37
2022-08-01T07:28:13.980Z,1008.44
2022-08-01T07:29:14.007Z,1008.40
2022-08-01T07:30:14.018Z,1008.41
2022-08-01T07:31:13.992Z,1008.44
2022-08-01T07:32:13.991Z,1008.42
2022-08-01T07:33:14.019Z,1008.46
2022-08-01T07:34:14.005Z,1008.42
2022-08-01T07:35:14.015Z,1008.44
2022-08-01T07:36:14.010Z,1008.45
2022-08-01T07:37:14.030Z,1008.46
2022-08-01T07:38:14.021Z,1008.47
2022-08-01T07:39:14.049Z,1008.51
2022-08-01T07:40:14.057Z,1008.47
2022-08-01T07:41:14.056Z,1008.54
2022-08-01T07:42:14.335Z,1008.53
2022-08-01T07:43:14.050Z,1008.50
2022-08-01T07:44:14.069Z,1008.50
2022-08-01T07:45:14.069Z,1008.57
2022-08-01T07:46:14.062Z,1008.55
2022-08-01T07:47:14.079Z,1008.52
2022-08-01T07:48:14.095Z,1008.50
2022-08-01T07:49:14.190Z,1008.51
2022-08-01T07:50:14.096Z,1008.54
2022-08-01T07:51:14.114Z,1008.55
2022-08-01T07:52:14.210Z,1008.56
2022-08-01T07:53:14.118Z,1008.56
2022-08-01T07:54:14.106Z,1008.63
2022-08-01T07:55:16.525Z,1008.60
2022-08-01T07:56:14.160Z,1008.64
2022-08-01T07:57:14.164Z,1008.61
2022-08-01T07:58:14.145Z,1008.61
2022-08-01T07:59:14.148Z,1008.69
2022-08-01T08:00:14.162Z,1008.66
2022-08-01T08:01:14.161Z,1008.69
2022-08-01T08:02:14.259Z,1008.69
2022-08-01T08:03:14.188Z,1008.71
2022-08-01T08:04:14.163Z,1008.69
2022-08-01T08:05:14.172Z,1008.66
2022-08-01T08:06:14.192Z,1008.72
2022-08-01T08:07:14.201Z,1008.66
2022-08-01T08:08:14.186Z,1008.70
2022-08-01T08:09:14.203Z,1008.75
2022-08-01T08:10:14.210Z,1008.72
2022-08-01T08:11:14.204Z,1008.68
2022-08-01T08:12:14.239Z,1008.70
2022-08-01T08:13:14.224Z,1008.72
2022-08-01T08:14:14.251Z,1008.70
2022-08-01T08:15:14.235Z,1008.76
2022-08-01T08:16:14.232Z,1008.75
2022-08-01T08:17:14.245Z,1008.76
2022-08-01T08:18:14.248Z,1008.78
2022-08-01T08:19:14.266Z,1008.77
2022-08-01T08:20:14.266Z,1008.81
2022-08-01T08:21:14.269Z,1008.81
2022-08-01T08:22:14.262Z,1008.79
2022-08-01T08:23:14.318Z,1008.81
2022-08-01T08:24:14.269Z,1008.83
2022-08-01T08:25:14.294Z,1008.85
2022-08-01T08:26:14.284Z,1008.84
2022-08-01T08:27:14.300Z,1008.85
2022-08-01T08:28:14.289Z,1008.79
2022-08-01T08:29:14.314Z,1008.87
2022-08-01T08:30:14.312Z,1008.80
2022-08-01T08:31:50.881Z,1008.80
2022-08-01T08:32:14.321Z,1008.76
2022-08-01T08:33:14.329Z,1008.79
2022-08-01T08:34:14.323Z,1008.84
2022-08-01T08:35:18.465Z,1008.80
2022-08-01T08:36:14.371Z,1008.78
2022-08-01T08:37:14.343Z,1008.78
2022-08-01T08:38:14.354Z,1008.80
2022-08-01T08:39:14.362Z,1008.81
2022-08-01T08:40:14.368Z,1008.79
2022-08-01T08:41:17.918Z,1008.83
2022-08-01T08:42:14.389Z,1008.84
2022-08-01T08:43:14.375Z,1008.80
2022-08-01T08:44:14.395Z,1008.77
2022-08-01T08:45:14.395Z,1008.82
2022-08-01T08:46:14.402Z,1008.81
2022-08-01T08:47:19.416Z,1008.83
2022-08-01T08:48:14.411Z,1008.82
2022-08-01T08:49:14.436Z,1008.82
2022-08-01T08:50:14.431Z,1008.78
2022-08-01T08:51:14.430Z,1008.83
2022-08-01T08:52:14.441Z,1008.87
2022-08-01T08:53:18.357Z,1008.85
2022-08-01T08:54:14.454Z,1008.86
2022-08-01T08:55:14.446Z,1008.89
2022-08-01T08:56:14.481Z,1008.89
2022-08-01T08:57:14.475Z,1008.88
2022-08-01T08:58:14.488Z,1008.86
2022-08-01T08:59:14.495Z,1008.90
2022-08-01T09:00:14.476Z,1008.87
2022-08-01T09:01:14.481Z,1008.92
2022-08-01T09:02:14.846Z,1008.95
2022-08-01T09:03:14.533Z,1008.92
2022-08-01T09:04:14.520Z,1008.95
2022-08-01T09:05:19.083Z,1008.95
2022-08-01T09:06:14.503Z,1008.94
2022-08-01T09:07:14.508Z,1008.93
2022-08-01T09:08:14.531Z,1008.95
2022-08-01T09:09:14.558Z,1008.97
2022-08-01T09:10:14.720Z,1009.00
2022-08-01T09:11:22.579Z,1009.03
2022-08-01T09:12:14.546Z,1009.01
2022-08-01T09:13:14.560Z,1008.98
2022-08-01T09:14:14.823Z,1009.02
2022-08-01T09:15:14.583Z,1009.07
2022-08-01T09:16:14.579Z,1009.05
2022-08-01T09:17:14.582Z,1009.07
2022-08-01T09:18:14.590Z,1009.09
2022-08-01T09:19:15.885Z,1009.08
2022-08-01T09:20:14.605Z,1009.10
2022-08-01T09:21:14.603Z,1009.13
2022-08-01T09:22:14.608Z,1009.15
2022-08-01T09:23:14.599Z,1009.15
2022-08-01T09:24:14.624Z,1009.18
2022-08-01T09:25:14.627Z,1009.21
2022-08-01T09:26:14.652Z,1009.21
2022-08-01T09:27:14.622Z,1009.22
2022-08-01T09:28:14.631Z,1009.29
2022-08-01T09:29:14.632Z,1009.25
2022-08-01T09:30:17.110Z,1009.22
2022-08-01T09:31:14.683Z,1009.28
2022-08-01T09:32:16.444Z,1009.26
2022-08-01T09:33:18.116Z,1009.31
2022-08-01T09:34:14.667Z,1009.27
2022-08-01T09:35:14.710Z,1009.28
2022-08-01T09:36:14.677Z,1009.28
2022-08-01T09:37:14.681Z,1009.30
2022-08-01T09:38:14.716Z,1009.32
2022-08-01T09:39:14.693Z,1009.28
2022-08-01T09:40:14.695Z,1009.29
2022-08-01T09:41:14.697Z,1009.33
2022-08-01T09:42:14.713Z,1009.32
2022-08-01T09:43:14.962Z,1009.32
2022-08-01T09:44:14.711Z,1009.34
2022-08-01T09:45:18.840Z,1009.31
2022-08-01T09:46:22.281Z,1009.32
2022-08-01T09:47:15.401Z,1009.29
2022-08-01T09:48:14.744Z,1009.38
2022-08-01T09:49:14.832Z,1009.35
2022-08-01T09:50:22.927Z,1009.36
2022-08-01T09:51:58.949Z,1009.39
2022-08-01T09:52:14.784Z,1009.39
2022-08-01T09:53:29.734Z,1009.44
2022-08-01T09:54:14.774Z,1009.42
2022-08-01T09:55:14.774Z,1009.44
2022-08-01T09:56:14.783Z,1009.42
2022-08-01T09:57:14.933Z,1009.40
2022-08-01T09:58:14.822Z,1009.45
2022-08-01T09:59:14.822Z,1009.43
2022-08-01T10:00:24.268Z,1009.43
2022-08-01T10:01:14.813Z,1009.47
2022-08-01T10:02:14.821Z,1009.43
2022-08-01T10:03:14.861Z,1009.49
2022-08-01T10:04:15.297Z,1009.49
2022-08-01T10:05:22.972Z,1009.50
2022-08-01T10:06:14.838Z,1009.51
2022-08-01T10:07:14.852Z,1009.51
2022-08-01T10:08:14.885Z,1009.52
2022-08-01T10:09:14.850Z,1009.56
2022-08-01T10:10:15.066Z,1009.55
2022-08-01T10:11:16.576Z,1009.56
2022-08-01T10:12:15.491Z,1009.57
2022-08-01T10:13:14.916Z,1009.57
2022-08-01T10:14:17.774Z,1009.62
2022-08-01T10:15:14.892Z,1009.63
2022-08-01T10:16:15.815Z,1009.66
2022-08-01T10:17:18.365Z,1009.67
2022-08-01T10:18:16.494Z,1009.62
2022-08-01T10:19:15.623Z,1009.60
2022-08-01T10:20:28.983Z,1009.63
2022-08-01T10:21:14.932Z,1009.61
2022-08-01T10:22:14.922Z,1009.64
2022-08-01T10:23:14.939Z,1009.65
2022-08-01T10:24:14.940Z,1009.66
2022-08-01T10:25:14.954Z,1009.61
2022-08-01T10:26:14.962Z,1009.63
2022-08-01T10:27:15.068Z,1009.64
2022-08-01T10:28:14.970Z,1009.68
2022-08-01T10:29:46.702Z,1009.64
2022-08-01T10:30:23.382Z,1009.66
2022-08-01T10:31:14.988Z,1009.63
2022-08-01T10:32:14.985Z,1009.64
2022-08-01T10:33:15.313Z,1009.70
2022-08-01T10:34:15.015Z,1009.62
2022-08-01T10:35:15.714Z,1009.62
2022-08-01T10:36:15.012Z,1009.63
2022-08-01T10:37:15.029Z,1009.71
2022-08-01T10:38:15.029Z,1009.70
2022-08-01T10:39:15.042Z,1009.66
2022-08-01T10:40:29.829Z,1009.65
2022-08-01T10:41:15.039Z,1009.63
2022-08-01T10:42:15.689Z,1009.65
2022-08-01T10:43:15.039Z,1009.62
2022-08-01T10:44:15.070Z,1009.65
2022-08-01T10:45:15.067Z,1009.62
2022-08-01T10:46:15.071Z,1009.67
2022-08-01T10:47:19.493Z,1009.67
2022-08-01T10:48:15.072Z,1009.64
2022-08-01T10:49:15.167Z,1009.68
2022-08-01T10:50:15.111Z,1009.64
2022-08-01T10:51:17.455Z,1009.58
2022-08-01T10:52:15.105Z,1009.59
2022-08-01T10:53:16.413Z,1009.63
2022-08-01T10:54:15.104Z,1009.66
2022-08-01T10:55:15.130Z,1009.65
2022-08-01T10:56:16.683Z,1009.64
2022-08-01T10:57:15.151Z,1009.64
2022-08-01T10:58:15.890Z,1009.63
2022-08-01T10:59:15.133Z,1009.66
2022-08-01T11:00:15.136Z,1009.62
2022-08-01T11:01:15.194Z,1009.69
2022-08-01T11:02:15.159Z,1009.64
2022-08-01T11:03:15.182Z,1009.66
2022-08-01T11:04:16.421Z,1009.70
2022-08-01T11:05:15.177Z,1009.70
2022-08-01T11:06:15.172Z,1009.74
2022-08-01T11:07:15.186Z,1009.69
2022-08-01T11:08:15.196Z,1009.71
2022-08-01T11:09:16.262Z,1009.71
2022-08-01T11:10:15.230Z,1009.72
2022-08-01T11:11:15.214Z,1009.67
2022-08-01T11:12:23.527Z,1009.73
2022-08-01T11:13:15.252Z,1009.68
2022-08-01T11:14:15.243Z,1009.75
2022-08-01T11:15:15.226Z,1009.69
2022-08-01T11:16:16.391Z,1009.77
2022-08-01T11:17:15.236Z,1009.73
2022-08-01T11:18:15.297Z,1009.74
2022-08-01T11:19:15.258Z,1009.78
2022-08-01T11:20:15.272Z,1009.77
2022-08-01T11:21:58.868Z,1009.75
2022-08-01T11:22:15.263Z,1009.84
2022-08-01T11:23:15.282Z,1009.81
2022-08-01T11:24:15.295Z,1009.85
2022-08-01T11:25:15.285Z,1009.85
2022-08-01T11:26:15.301Z,1009.84
2022-08-01T11:27:15.294Z,1009.88
2022-08-01T11:28:15.471Z,1009.84
2022-08-01T11:29:20.412Z,1009.85
2022-08-01T11:30:15.331Z,1009.88
2022-08-01T11:31:15.332Z,1009.85
2022-08-01T11:32:15.339Z,1009.90
2022-08-01T11:33:15.339Z,1009.88
2022-08-01T11:34:15.614Z,1009.92
2022-08-01T11:35:17.112Z,1009.91
2022-08-01T11:36:15.933Z,1009.89
2022-08-01T11:37:15.515Z,1009.92
2022-08-01T11:38:15.375Z,1009.95
2022-08-01T11:39:15.363Z,1009.97
2022-08-01T11:40:15.375Z,1010.00
2022-08-01T11:41:15.379Z,1009.96
2022-08-01T11:42:15.397Z,1009.97
2022-08-01T11:43:15.396Z,1010.00
2022-08-01T11:44:15.394Z,1009.96
2022-08-01T11:45:18.406Z,1009.97
2022-08-01T11:46:15.403Z,1010.01
2022-08-01T11:47:15.452Z,1010.00
2022-08-01T11:48:15.417Z,1009.98
2022-08-01T11:49:15.477Z,1009.98
2022-08-01T11:50:15.437Z,1010.06
2022-08-01T11:51:21.531Z,1010.04
2022-08-01T11:52:15.458Z,1010.07
2022-08-01T11:53:15.469Z,1010.06
2022-08-01T11:54:15.461Z,1010.06
2022-08-01T11:55:16.818Z,1010.05
2022-08-01T11:56:15.468Z,1010.07
2022-08-01T11:57:15.478Z,1010.08
2022-08-01T11:58:15.493Z,1010.05
2022-08-01T11:59:15.478Z,1010.09
2022-08-01T12:00:16.679Z,1010.09
2022-08-01T12:01:15.499Z,1010.10
2022-08-01T12:02:15.536Z,1010.12
2022-08-01T12:03:20.002Z,1010.15
2022-08-01T12:04:15.513Z,1010.15
2022-08-01T12:05:15.869Z,1010.15